Time;durP1;ratioP1;P1;durP2;ratioP2;P2;SDS_P1;SDS_P2;PMS_P1;PMS_P2;Temp;Humidity;BMP_temperature;BMP_pressure;BME280_temperature;BME280_humidity;BME280_pressure;Samples;Min_cycle;Max_cycle;Signal;HPM_P1;HPM_P2
2024/03/02 01:13:14;;;;;;;5.63;1.70;;;;;;;;;;4844810;29;20090;-84
2024/03/02 01:25:59;;;;;;;8.70;1.13;;;;;;;;;;4833146;29;20164;-83
2024/03/02 01:29:00;;;;;;;6.82;1.30;;;;;;;;;;4812585;29;20050;-83
2024/03/02 01:31:44;;;;;;;2.50;0.80;;;;;;;;;;4825062;29;20155;-83
2024/03/02 01:41:16;;;;;;;3.08;0.95;;;;;;;;;;4770161;30;20043;-83
2024/03/02 01:44:09;;;;;;;;;;;;;;;;;;;;;
2024/03/02 02:11:17;;;;;;;2.22;0.73;;;;;;;;;;4766238;30;20087;-82
2024/03/02 02:14:19;;;;;;;;;;;;;;;;;;;;;
2024/03/02 02:35:54;;;;;;;2.67;0.65;;;;;;;;;;4477686;27;20053;-83
2024/03/02 03:24:58;;;;;;;3.13;0.40;;;;;;;;;;3982440;27;20085;-83
2024/03/02 03:28:01;;;;;;;1.35;0.50;;;;;;;;;;4807273;29;20485;-83
2024/03/02 04:18:16;;;;;;;3.40;0.65;;;;;;;;;;4856153;29;20069;-82
2024/03/02 04:20:52;;;;;;;;;;;;;;;;;;;;;
2024/03/02 04:38:30;;;;;;;;;;;;;;;;;;;;;
2024/03/02 04:45:18;;;;;;;1.85;0.77;;;;;;;;;;4793900;29;20828;-83
2024/03/02 04:48:20;;;;;;;;;;;;;;;;;;;;;
2024/03/02 04:51:05;;;;;;;2.28;0.65;;;;;;;;;;4828305;29;20060;-81
2024/03/02 04:54:00;;;;;;;0.65;0.30;;;;;;;;;;4800139;29;20051;-81
2024/03/02 05:14:56;;;;;;;1.00;0.25;;;;;;;;;;4791463;29;20045;-80
2024/03/02 05:17:37;;;;;;;1.10;0.32;;;;;;;;;;4783406;29;20097;-81
2024/03/02 05:20:21;;;;;;;1.60;0.63;;;;;;;;;;4799448;29;20161;-81
2024/03/02 05:28:02;;;;;;;2.58;0.88;;;;;;;;;;4593848;27;20507;-81
2024/03/02 05:30:59;;;;;;;0.70;0.30;;;;;;;;;;4822000;29;20048;-81
2024/03/02 05:33:28;;;;;;;1.13;0.38;;;;;;;;;;4806647;29;20085;-81
2024/03/02 05:36:15;;;;;;;0.95;0.25;;;;;;;;;;4821503;29;20062;-82
2024/03/02 05:39:06;;;;;;;7.72;0.43;;;;;;;;;;4820480;29;20049;-81
2024/03/02 05:41:37;;;;;;;1.17;0.52;;;;;;;;;;4833135;29;20514;-82
2024/03/02 05:51:26;;;;;;;0.60;0.30;;;;;;;;;;4763451;30;20032;-82
2024/03/02 05:56:55;;;;;;;1.70;0.77;;;;;;;;;;2125364;24;20094;-81
2024/03/02 06:03:09;;;;;;;1.45;0.45;;;;;;;;;;4847336;29;20492;-81
2024/03/02 06:05:35;;;;;;;0.83;0.40;;;;;;;;;;4838911;29;20870;-82
2024/03/02 06:08:01;;;;;;;1.83;0.20;;;;;;;;;;4834748;29;20041;-82
2024/03/02 06:10:27;;;;;;;2.20;0.57;;;;;;;;;;4836196;29;20041;-82
2024/03/02 06:12:56;;;;;;;1.05;0.20;;;;;;;;;;4835163;29;20069;-82
2024/03/02 06:15:22;;;;;;;0.35;0.20;;;;;;;;;;4839630;29;20049;-83
2024/03/02 06:17:48;;;;;;;1.20;0.35;;;;;;;;;;4844045;29;20041;-84
2024/03/02 06:20:43;;;;;;;1.05;0.17;;;;;;;;;;4840860;29;20063;-81
2024/03/02 06:26:12;;;;;;;2.50;0.40;;;;;;;;;;4848526;29;20041;-83
2024/03/02 06:29:04;;;;;;;;;;;;;;;;;;;;;
2024/03/02 06:34:49;;;;;;;0.85;0.35;;;;;;;;;;4803168;29;20200;-84
2024/03/02 08:38:50;;;;;;;0.38;0.10;;;;;;;;;;4802164;29;20471;-86
2024/03/02 08:52:43;;;;;;;0.95;0.10;;;;;;;;;;4437665;24;20645;-89
2024/03/02 09:03:16;;;;;;;1.77;0.10;;;;;;;;;;4901054;24;20638;-82
2024/03/02 09:05:51;;;;;;;0.65;0.10;;;;;;;;;;4827332;29;20049;-84
2024/03/02 09:08:20;;;;;;;0.40;0.10;;;;;;;;;;4828042;29;20111;-85
2024/03/02 09:10:46;;;;;;;0.73;0.20;;;;;;;;;;4829503;29;20096;-85
2024/03/02 09:16:20;;;;;;;2.78;0.22;;;;;;;;;;4821987;24;20054;-84
2024/03/02 09:18:54;;;;;;;1.23;0.20;;;;;;;;;;4826084;29;20530;-84
2024/03/02 09:21:46;;;;;;;1.13;0.30;;;;;;;;;;4807919;29;20985;-83
2024/03/02 09:24:27;;;;;;;1.17;0.43;;;;;;;;;;4820468;29;20569;-84
2024/03/02 10:08:45;;;;;;;0.55;0.08;;;;;;;;;;5339454;24;20077;-84
2024/03/02 10:14:34;;;;;;;1.17;0.13;;;;;;;;;;979285;27;21871;-81
2024/03/02 10:29:40;;;;;;;1.48;0.10;;;;;;;;;;4797890;29;20042;-85
2024/03/02 10:34:59;;;;;;;2.30;0.40;;;;;;;;;;4813703;29;20066;-84
2024/03/02 10:52:50;;;;;;;0.63;0.10;;;;;;;;;;4750282;30;20131;-82
2024/03/02 10:55:17;;;;;;;0.10;0.00;;;;;;;;;;4749465;30;20123;-82
2024/03/02 10:58:11;;;;;;;2.05;0.50;;;;;;;;;;4741585;30;20529;-83
2024/03/02 11:00:49;;;;;;;2.67;0.10;;;;;;;;;;4750938;30;20060;-84
2024/03/02 11:03:15;;;;;;;0.60;0.22;;;;;;;;;;4753335;29;20044;-83
2024/03/02 11:05:43;;;;;;;0.00;0.00;;;;;;;;;;4822909;29;20054;-85
2024/03/02 11:08:16;;;;;;;1.98;0.20;;;;;;;;;;4821138;29;20042;-83
2024/03/02 11:10:47;;;;;;;1.85;0.13;;;;;;;;;;4826487;29;20063;-84
2024/03/02 11:13:13;;;;;;;0.75;0.13;;;;;;;;;;4813205;29;20047;-83
2024/03/02 11:15:40;;;;;;;1.08;0.20;;;;;;;;;;4824653;29;20129;-84
2024/03/02 11:18:08;;;;;;;0.93;0.57;;;;;;;;;;4812963;29;20073;-82
2024/03/02 11:20:37;;;;;;;1.40;0.20;;;;;;;;;;4823297;29;20053;-83
2024/03/02 11:23:07;;;;;;;1.20;0.20;;;;;;;;;;4816604;29;20070;-82
2024/03/02 11:25:33;;;;;;;2.10;0.22;;;;;;;;;;4819356;29;20088;-83
2024/03/02 11:28:02;;;;;;;0.75;0.20;;;;;;;;;;4822787;29;20076;-82
2024/03/02 11:30:35;;;;;;;2.53;0.38;;;;;;;;;;4822594;29;20038;-83
2024/03/02 11:33:08;;;;;;;0.10;0.10;;;;;;;;;;4815878;29;20054;-83
2024/03/02 11:35:35;;;;;;;0.10;0.00;;;;;;;;;;4805274;29;20050;-85
2024/03/02 11:38:05;;;;;;;0.32;0.00;;;;;;;;;;4821405;29;20108;-87
2024/03/02 12:01:13;;;;;;;0.20;0.10;;;;;;;;;;4843441;29;20033;-86
2024/03/02 12:23:03;;;;;;;0.32;0.10;;;;;;;;;;4859427;29;20076;-84
2024/03/02 12:25:46;;;;;;;0.55;0.13;;;;;;;;;;4841981;29;20053;-84
2024/03/02 12:33:29;;;;;;;0.28;0.10;;;;;;;;;;3280924;24;20077;-86
2024/03/02 13:07:02;;;;;;;;;;;;;;;;;;;;;
2024/03/02 13:16:22;;;;;;;;;;;;;;;;;;;;;
2024/03/02 13:22:31;;;;;;;1.85;0.10;;;;;;;;;;4798891;24;20061;-84
2024/03/02 13:25:13;;;;;;;0.20;0.10;;;;;;;;;;4838655;29;20090;-82
2024/03/02 13:28:10;;;;;;;3.58;0.40;;;;;;;;;;4824169;29;20832;-82
2024/03/02 13:35:52;;;;;;;1.25;0.20;;;;;;;;;;4841658;29;20046;-81
2024/03/02 13:38:39;;;;;;;0.60;0.20;;;;;;;;;;4838113;29;20573;-82
2024/03/02 13:44:00;;;;;;;1.45;0.10;;;;;;;;;;4827260;29;20086;-82
2024/03/02 13:46:56;;;;;;;;;;;;;;;;;;;;;
2024/03/02 13:49:41;;;;;;;1.50;0.73;;;;;;;;;;4832071;29;20050;-82
2024/03/02 14:00:47;;;;;;;0.75;0.38;;;;;;;;;;4831617;29;20106;-83
2024/03/02 14:03:13;;;;;;;0.40;0.30;;;;;;;;;;4826375;29;20388;-81
2024/03/02 14:05:46;;;;;;;1.92;0.30;;;;;;;;;;4830564;29;20050;-83
2024/03/02 14:11:04;;;;;;;1.33;0.22;;;;;;;;;;4844297;29;20124;-83
2024/03/02 14:13:30;;;;;;;18.60;0.57;;;;;;;;;;4822473;29;20054;-83
2024/03/02 14:15:58;;;;;;;2.45;0.30;;;;;;;;;;4826446;29;20041;-83
2024/03/02 14:18:24;;;;;;;0.88;0.30;;;;;;;;;;4835861;29;20128;-83
2024/03/02 14:20:52;;;;;;;2.58;0.43;;;;;;;;;;4825530;29;20046;-83
2024/03/02 14:23:20;;;;;;;1.23;0.30;;;;;;;;;;4833264;29;20072;-83
2024/03/02 14:25:49;;;;;;;1.10;0.35;;;;;;;;;;4843406;29;20141;-83
2024/03/02 14:28:19;;;;;;;0.82;0.30;;;;;;;;;;4827491;29;20141;-83
2024/03/02 14:30:45;;;;;;;1.48;0.17;;;;;;;;;;4845307;29;20145;-83
2024/03/02 14:33:11;;;;;;;1.10;0.32;;;;;;;;;;4846616;29;20046;-84
2024/03/02 14:35:37;;;;;;;0.93;0.20;;;;;;;;;;4841220;29;20128;-83
2024/03/02 14:38:04;;;;;;;1.73;0.32;;;;;;;;;;4832850;29;20089;-83
2024/03/02 14:40:30;;;;;;;1.90;0.57;;;;;;;;;;4838401;29;20041;-83
2024/03/02 14:42:56;;;;;;;2.42;0.40;;;;;;;;;;4825303;29;20053;-83
2024/03/02 14:45:25;;;;;;;0.77;0.22;;;;;;;;;;4827004;29;20045;-83
2024/03/02 14:48:10;;;;;;;2.30;0.30;;;;;;;;;;4822205;29;20428;-84
2024/03/02 14:57:10;;;;;;;;;;;;;;;;;;;;;
2024/03/02 14:59:42;;;;;;;6.38;0.30;;;;;;;;;;4814433;29;20065;-83
2024/03/02 15:02:19;;;;;;;0.43;0.13;;;;;;;;;;4806798;29;20042;-84
2024/03/02 15:04:53;;;;;;;1.13;0.30;;;;;;;;;;4822268;29;20039;-84
2024/03/02 15:08:04;;;;;;;1.25;0.30;;;;;;;;;;4805751;29;20043;-84
2024/03/02 15:10:36;;;;;;;3.78;0.20;;;;;;;;;;4811779;29;20046;-84
2024/03/02 15:13:02;;;;;;;2.42;0.50;;;;;;;;;;4822495;29;20135;-83
2024/03/02 15:22:00;;;;;;;4.72;0.30;;;;;;;;;;4795884;24;20032;-84
2024/03/02 15:51:18;;;;;;;1.05;0.30;;;;;;;;;;5847756;24;20053;-85
2024/03/02 17:21:07;;;;;;;2.15;0.70;;;;;;;;;;4821272;29;20417;-85
2024/03/02 18:10:17;;;;;;;6.65;0.95;;;;;;;;;;774760;27;21676;-83
2024/03/02 18:12:44;;;;;;;3.85;1.20;;;;;;;;;;4804957;29;20046;-83
2024/03/02 18:15:10;;;;;;;3.13;0.85;;;;;;;;;;4805563;29;20098;-82
2024/03/02 18:17:36;;;;;;;4.85;1.38;;;;;;;;;;4793867;29;20153;-82
2024/03/02 18:20:04;;;;;;;2.75;0.98;;;;;;;;;;4807242;29;20046;-82
2024/03/02 18:22:30;;;;;;;2.53;0.70;;;;;;;;;;4798115;29;20157;-82
2024/03/02 18:24:56;;;;;;;5.78;1.20;;;;;;;;;;4790243;29;20642;-82
2024/03/02 18:27:22;;;;;;;3.22;1.25;;;;;;;;;;4808075;29;20066;-83
2024/03/02 18:29:48;;;;;;;3.13;0.82;;;;;;;;;;4807706;29;20049;-82
2024/03/02 18:32:14;;;;;;;3.38;0.93;;;;;;;;;;4808007;29;20039;-82
2024/03/02 18:34:40;;;;;;;4.68;1.20;;;;;;;;;;4806857;29;20058;-83
2024/03/02 18:37:06;;;;;;;4.82;1.20;;;;;;;;;;4805311;29;20078;-81
2024/03/02 18:39:32;;;;;;;3.88;0.93;;;;;;;;;;4812114;29;20058;-83
2024/03/02 18:41:59;;;;;;;4.95;1.67;;;;;;;;;;4798552;29;20142;-82
2024/03/02 18:44:25;;;;;;;12.70;3.70;;;;;;;;;;4804196;29;20050;-82
2024/03/02 18:52:07;;;;;;;6.28;1.98;;;;;;;;;;4876199;24;20163;-82
2024/03/02 18:54:33;;;;;;;4.47;0.98;;;;;;;;;;4843831;29;20387;-83
2024/03/02 18:57:05;;;;;;;6.35;1.65;;;;;;;;;;4837540;29;20081;-81
